Terminal Aerodrome Forecast
Issued by NWS

Home | Current Version | Previous Version | Text Only | Print | Product List | Glossary On
Versions: 1 2 3 4 5 6 7 8 9 10 11 12 13 14 15 16 17 18 19 20 21 22 23 24 25 26 27 28 29 30 31 32 33 34 35 36 37 38 39 40 41 42 43 44 45 46 47 48 49 50
000
FTUS41 KBOX 270545
TAFMHT
TAF
KMHT 270545Z 2706/2806 34011KT 1 1/2SM -SN BR BKN008 OVC015
     FM270800 34009KT 3SM -SN OVC015
     FM271100 33009KT P6SM OVC015
     FM271300 32006KT P6SM BKN025
     FM271500 31006KT P6SM BKN050
     FM271800 31005KT P6SM OVC025
     FM272100 31004KT P6SM OVC050=

USA.gov is the U.S. government's official web portal to all federal, state and local government web resources and services.